Terminal Aerodrome Forecast
Issued by NWS

Home | Current Version | Previous Version | Text Only | Print | Product List | Glossary Off
Versions: 1 2 3 4 5 6 7 8 9 10 11 12 13 14 15 16 17 18 19 20 21

054
FTUS43 KABR 241720
TAFATY
TAF
KATY 241720Z 2418/2518 30012KT P6SM SCT200
     FM250200 28008KT P6SM SCT250
     FM251500 30013KT P6SM FEW130=

USA.gov is the U.S. government's official web portal to all federal, state and local government web resources and services.